sensor_id;sensor_type;location;lat;lon;timestamp;P1;durP1;ratioP1;P2;durP2;ratioP2
50988;SDS011;37008;52.210;21.112;2023-02-25T00:00:48;100.65;;;49.78;;
50988;SDS011;37008;52.210;21.112;2023-02-25T00:03:14;73.40;;;40.05;;
50988;SDS011;37008;52.210;21.112;2023-02-25T00:05:43;73.40;;;37.75;;
50988;SDS011;37008;52.210;21.112;2023-02-25T00:08:08;39.03;;;23.70;;
50988;SDS011;37008;52.210;21.112;2023-02-25T00:10:34;38.25;;;23.13;;
50988;SDS011;37008;52.210;21.112;2023-02-25T00:13:02;36.22;;;21.65;;
50988;SDS011;37008;52.210;21.112;2023-02-25T00:15:29;35.38;;;21.48;;
50988;SDS011;37008;52.210;21.112;2023-02-25T00:17:54;38.60;;;23.10;;
50988;SDS011;37008;52.210;21.112;2023-02-25T00:20:20;33.60;;;22.10;;
50988;SDS011;37008;52.210;21.112;2023-02-25T00:22:46;29.02;;;18.15;;
50988;SDS011;37008;52.210;21.112;2023-02-25T00:25:13;30.48;;;19.65;;
50988;SDS011;37008;52.210;21.112;2023-02-25T00:27:41;31.55;;;19.15;;
50988;SDS011;37008;52.210;21.112;2023-02-25T00:30:07;30.85;;;19.27;;
50988;SDS011;37008;52.210;21.112;2023-02-25T00:32:34;34.65;;;20.00;;
50988;SDS011;37008;52.210;21.112;2023-02-25T00:35:01;29.13;;;19.67;;
50988;SDS011;37008;52.210;21.112;2023-02-25T00:37:27;31.30;;;19.63;;
50988;SDS011;37008;52.210;21.112;2023-02-25T00:39:52;30.23;;;18.23;;
50988;SDS011;37008;52.210;21.112;2023-02-25T00:42:18;32.72;;;17.45;;
50988;SDS011;37008;52.210;21.112;2023-02-25T00:44:44;26.63;;;16.52;;
50988;SDS011;37008;52.210;21.112;2023-02-25T00:47:12;23.63;;;15.15;;
50988;SDS011;37008;52.210;21.112;2023-02-25T00:49:38;29.98;;;16.98;;
50988;SDS011;37008;52.210;21.112;2023-02-25T00:52:04;31.40;;;16.33;;
50988;SDS011;37008;52.210;21.112;2023-02-25T00:54:30;27.77;;;16.50;;
50988;SDS011;37008;52.210;21.112;2023-02-25T00:56:58;33.90;;;15.48;;
50988;SDS011;37008;52.210;21.112;2023-02-25T00:59:24;27.15;;;14.15;;
50988;SDS011;37008;52.210;21.112;2023-02-25T01:01:50;22.30;;;14.13;;
50988;SDS011;37008;52.210;21.112;2023-02-25T01:04:16;26.05;;;13.55;;
50988;SDS011;37008;52.210;21.112;2023-02-25T01:06:42;25.15;;;14.30;;
50988;SDS011;37008;52.210;21.112;2023-02-25T01:09:08;25.90;;;15.50;;
50988;SDS011;37008;52.210;21.112;2023-02-25T01:11:38;23.33;;;14.48;;
50988;SDS011;37008;52.210;21.112;2023-02-25T01:14:09;27.27;;;14.75;;
50988;SDS011;37008;52.210;21.112;2023-02-25T01:16:36;27.27;;;16.80;;
50988;SDS011;37008;52.210;21.112;2023-02-25T01:19:03;28.77;;;16.60;;
50988;SDS011;37008;52.210;21.112;2023-02-25T01:21:38;29.85;;;17.98;;
50988;SDS011;37008;52.210;21.112;2023-02-25T01:24:12;27.77;;;16.48;;
50988;SDS011;37008;52.210;21.112;2023-02-25T01:26:40;30.23;;;18.10;;
50988;SDS011;37008;52.210;21.112;2023-02-25T01:29:08;30.23;;;17.50;;
50988;SDS011;37008;52.210;21.112;2023-02-25T01:31:42;29.30;;;16.65;;
50988;SDS011;37008;52.210;21.112;2023-02-25T01:34:09;30.55;;;16.13;;
50988;SDS011;37008;52.210;21.112;2023-02-25T01:36:37;25.98;;;15.00;;
50988;SDS011;37008;52.210;21.112;2023-02-25T01:39:03;27.65;;;15.73;;
50988;SDS011;37008;52.210;21.112;2023-02-25T01:41:31;25.73;;;15.32;;
50988;SDS011;37008;52.210;21.112;2023-02-25T01:44:02;23.70;;;14.43;;
50988;SDS011;37008;52.210;21.112;2023-02-25T01:46:30;26.02;;;15.10;;
50988;SDS011;37008;52.210;21.112;2023-02-25T01:48:55;24.15;;;14.20;;
50988;SDS011;37008;52.210;21.112;2023-02-25T01:51:21;28.77;;;15.00;;
50988;SDS011;37008;52.210;21.112;2023-02-25T01:53:51;26.15;;;16.45;;
50988;SDS011;37008;52.210;21.112;2023-02-25T01:56:21;25.05;;;15.18;;
50988;SDS011;37008;52.210;21.112;2023-02-25T01:58:50;23.80;;;15.48;;
50988;SDS011;37008;52.210;21.112;2023-02-25T02:01:18;28.77;;;15.60;;
50988;SDS011;37008;52.210;21.112;2023-02-25T02:03:45;25.17;;;15.60;;
50988;SDS011;37008;52.210;21.112;2023-02-25T02:06:14;27.15;;;16.17;;
50988;SDS011;37008;52.210;21.112;2023-02-25T02:08:49;27.38;;;16.40;;
50988;SDS011;37008;52.210;21.112;2023-02-25T02:11:14;34.55;;;17.13;;
50988;SDS011;37008;52.210;21.112;2023-02-25T02:13:42;25.42;;;16.30;;
50988;SDS011;37008;52.210;21.112;2023-02-25T02:16:21;28.38;;;15.80;;
50988;SDS011;37008;52.210;21.112;2023-02-25T02:19:03;30.15;;;17.00;;
50988;SDS011;37008;52.210;21.112;2023-02-25T02:27:02;31.70;;;16.30;;
50988;SDS011;37008;52.210;21.112;2023-02-25T02:29:55;28.58;;;16.63;;
50988;SDS011;37008;52.210;21.112;2023-02-25T02:38:36;37.75;;;18.05;;
50988;SDS011;37008;52.210;21.112;2023-02-25T02:44:19;31.48;;;18.10;;
50988;SDS011;37008;52.210;21.112;2023-02-25T02:46:58;33.58;;;17.58;;
50988;SDS011;37008;52.210;21.112;2023-02-25T02:52:08;32.40;;;18.95;;
50988;SDS011;37008;52.210;21.112;2023-02-25T02:54:39;37.47;;;18.77;;
50988;SDS011;37008;52.210;21.112;2023-02-25T02:57:07;30.83;;;17.25;;
50988;SDS011;37008;52.210;21.112;2023-02-25T02:59:46;30.05;;;18.35;;
50988;SDS011;37008;52.210;21.112;2023-02-25T03:02:36;34.22;;;17.50;;
50988;SDS011;37008;52.210;21.112;2023-02-25T03:05:04;32.28;;;17.80;;
50988;SDS011;37008;52.210;21.112;2023-02-25T03:07:35;29.13;;;16.80;;
50988;SDS011;37008;52.210;21.112;2023-02-25T03:10:05;32.95;;;17.58;;
50988;SDS011;37008;52.210;21.112;2023-02-25T03:12:32;33.17;;;18.10;;
50988;SDS011;37008;52.210;21.112;2023-02-25T03:14:58;29.75;;;16.77;;
50988;SDS011;37008;52.210;21.112;2023-02-25T03:17:25;32.10;;;17.92;;
50988;SDS011;37008;52.210;21.112;2023-02-25T03:20:02;29.98;;;17.60;;
50988;SDS011;37008;52.210;21.112;2023-02-25T03:22:35;27.50;;;16.67;;
50988;SDS011;37008;52.210;21.112;2023-02-25T03:27:47;33.53;;;18.35;;
50988;SDS011;37008;52.210;21.112;2023-02-25T03:33:23;32.65;;;18.42;;
50988;SDS011;37008;52.210;21.112;2023-02-25T03:35:58;35.20;;;18.40;;
50988;SDS011;37008;52.210;21.112;2023-02-25T03:38:27;36.72;;;19.35;;
50988;SDS011;37008;52.210;21.112;2023-02-25T03:40:56;31.65;;;17.58;;
50988;SDS011;37008;52.210;21.112;2023-02-25T03:43:48;31.77;;;18.40;;
50988;SDS011;37008;52.210;21.112;2023-02-25T03:46:14;34.72;;;19.00;;
50988;SDS011;37008;52.210;21.112;2023-02-25T03:48:42;32.75;;;18.33;;
50988;SDS011;37008;52.210;21.112;2023-02-25T03:51:09;30.38;;;17.67;;
50988;SDS011;37008;52.210;21.112;2023-02-25T03:53:36;32.00;;;18.60;;
50988;SDS011;37008;52.210;21.112;2023-02-25T03:56:04;30.50;;;17.92;;
50988;SDS011;37008;52.210;21.112;2023-02-25T03:58:32;30.55;;;18.27;;
50988;SDS011;37008;52.210;21.112;2023-02-25T04:01:02;29.20;;;17.63;;
50988;SDS011;37008;52.210;21.112;2023-02-25T04:03:31;28.58;;;17.60;;
50988;SDS011;37008;52.210;21.112;2023-02-25T04:05:57;31.35;;;17.98;;
50988;SDS011;37008;52.210;21.112;2023-02-25T04:08:23;30.85;;;16.88;;
50988;SDS011;37008;52.210;21.112;2023-02-25T04:10:49;26.45;;;17.60;;
50988;SDS011;37008;52.210;21.112;2023-02-25T04:13:15;24.13;;;16.67;;
50988;SDS011;37008;52.210;21.112;2023-02-25T04:15:41;28.45;;;19.30;;
50988;SDS011;37008;52.210;21.112;2023-02-25T04:18:08;24.30;;;16.35;;
50988;SDS011;37008;52.210;21.112;2023-02-25T04:20:33;23.08;;;17.27;;
50988;SDS011;37008;52.210;21.112;2023-02-25T04:23:00;26.33;;;17.05;;
50988;SDS011;37008;52.210;21.112;2023-02-25T04:25:26;24.77;;;17.25;;
50988;SDS011;37008;52.210;21.112;2023-02-25T04:27:52;26.63;;;17.92;;
50988;SDS011;37008;52.210;21.112;2023-02-25T04:30:18;24.83;;;16.90;;
50988;SDS011;37008;52.210;21.112;2023-02-25T04:32:43;28.55;;;17.50;;
50988;SDS011;37008;52.210;21.112;2023-02-25T04:35:09;29.25;;;18.05;;
50988;SDS011;37008;52.210;21.112;2023-02-25T04:37:38;27.23;;;18.40;;
50988;SDS011;37008;52.210;21.112;2023-02-25T04:40:05;28.02;;;18.15;;
50988;SDS011;37008;52.210;21.112;2023-02-25T04:42:36;27.13;;;18.50;;
50988;SDS011;37008;52.210;21.112;2023-02-25T04:45:02;28.60;;;18.05;;
50988;SDS011;37008;52.210;21.112;2023-02-25T04:47:28;26.75;;;18.48;;
50988;SDS011;37008;52.210;21.112;2023-02-25T04:49:54;29.13;;;18.85;;
50988;SDS011;37008;52.210;21.112;2023-02-25T04:52:19;24.88;;;16.70;;
50988;SDS011;37008;52.210;21.112;2023-02-25T04:54:45;26.30;;;16.45;;
50988;SDS011;37008;52.210;21.112;2023-02-25T04:57:11;25.52;;;18.08;;
50988;SDS011;37008;52.210;21.112;2023-02-25T04:59:37;25.75;;;17.25;;
50988;SDS011;37008;52.210;21.112;2023-02-25T05:02:04;24.80;;;15.95;;
50988;SDS011;37008;52.210;21.112;2023-02-25T05:04:31;25.17;;;17.02;;
50988;SDS011;37008;52.210;21.112;2023-02-25T05:06:58;23.00;;;15.32;;
50988;SDS011;37008;52.210;21.112;2023-02-25T05:09:24;24.00;;;16.77;;
50988;SDS011;37008;52.210;21.112;2023-02-25T05:11:50;26.88;;;17.20;;
50988;SDS011;37008;52.210;21.112;2023-02-25T05:14:16;23.45;;;16.15;;
50988;SDS011;37008;52.210;21.112;2023-02-25T05:16:42;28.35;;;17.88;;
50988;SDS011;37008;52.210;21.112;2023-02-25T05:19:08;25.50;;;16.95;;
50988;SDS011;37008;52.210;21.112;2023-02-25T05:21:38;27.52;;;17.58;;
50988;SDS011;37008;52.210;21.112;2023-02-25T05:24:04;26.88;;;18.10;;
50988;SDS011;37008;52.210;21.112;2023-02-25T05:26:30;29.00;;;18.63;;
50988;SDS011;37008;52.210;21.112;2023-02-25T05:28:56;27.77;;;18.45;;
50988;SDS011;37008;52.210;21.112;2023-02-25T05:31:22;31.52;;;20.13;;
50988;SDS011;37008;52.210;21.112;2023-02-25T05:33:48;28.42;;;19.02;;
50988;SDS011;37008;52.210;21.112;2023-02-25T05:36:15;25.33;;;19.02;;
50988;SDS011;37008;52.210;21.112;2023-02-25T05:38:41;25.00;;;17.48;;
50988;SDS011;37008;52.210;21.112;2023-02-25T05:41:07;28.17;;;18.65;;
50988;SDS011;37008;52.210;21.112;2023-02-25T05:43:34;26.67;;;18.48;;
50988;SDS011;37008;52.210;21.112;2023-02-25T05:46:01;24.95;;;17.58;;
50988;SDS011;37008;52.210;21.112;2023-02-25T05:48:27;24.75;;;17.95;;
50988;SDS011;37008;52.210;21.112;2023-02-25T05:51:01;23.80;;;18.13;;
50988;SDS011;37008;52.210;21.112;2023-02-25T05:53:29;23.83;;;17.40;;
50988;SDS011;37008;52.210;21.112;2023-02-25T05:55:55;26.00;;;18.10;;
50988;SDS011;37008;52.210;21.112;2023-02-25T05:58:21;22.20;;;16.55;;
50988;SDS011;37008;52.210;21.112;2023-02-25T06:00:47;22.98;;;18.15;;
50988;SDS011;37008;52.210;21.112;2023-02-25T06:03:13;23.88;;;16.52;;
50988;SDS011;37008;52.210;21.112;2023-02-25T06:05:39;23.40;;;16.02;;
50988;SDS011;37008;52.210;21.112;2023-02-25T06:08:06;22.33;;;17.80;;
50988;SDS011;37008;52.210;21.112;2023-02-25T06:10:32;23.02;;;17.30;;
50988;SDS011;37008;52.210;21.112;2023-02-25T06:13:03;23.20;;;18.17;;
50988;SDS011;37008;52.210;21.112;2023-02-25T06:15:29;24.05;;;16.75;;
50988;SDS011;37008;52.210;21.112;2023-02-25T06:17:55;22.95;;;17.55;;
50988;SDS011;37008;52.210;21.112;2023-02-25T06:20:21;25.27;;;18.08;;
50988;SDS011;37008;52.210;21.112;2023-02-25T06:22:49;25.75;;;18.92;;
50988;SDS011;37008;52.210;21.112;2023-02-25T06:25:18;25.20;;;18.50;;
50988;SDS011;37008;52.210;21.112;2023-02-25T06:27:44;26.05;;;18.30;;
50988;SDS011;37008;52.210;21.112;2023-02-25T06:30:10;24.77;;;18.33;;
50988;SDS011;37008;52.210;21.112;2023-02-25T06:32:37;25.20;;;19.58;;
50988;SDS011;37008;52.210;21.112;2023-02-25T06:35:03;25.90;;;19.35;;
50988;SDS011;37008;52.210;21.112;2023-02-25T06:37:30;24.70;;;18.77;;
50988;SDS011;37008;52.210;21.112;2023-02-25T06:39:56;25.88;;;19.35;;
50988;SDS011;37008;52.210;21.112;2023-02-25T06:42:22;27.23;;;18.27;;
50988;SDS011;37008;52.210;21.112;2023-02-25T06:44:49;26.65;;;18.83;;
50988;SDS011;37008;52.210;21.112;2023-02-25T06:47:15;30.27;;;21.20;;
50988;SDS011;37008;52.210;21.112;2023-02-25T06:49:41;27.58;;;19.35;;
50988;SDS011;37008;52.210;21.112;2023-02-25T06:52:06;30.25;;;19.98;;
50988;SDS011;37008;52.210;21.112;2023-02-25T06:54:33;31.92;;;20.85;;
50988;SDS011;37008;52.210;21.112;2023-02-25T06:56:59;30.02;;;21.95;;
50988;SDS011;37008;52.210;21.112;2023-02-25T06:59:24;32.95;;;22.25;;
50988;SDS011;37008;52.210;21.112;2023-02-25T07:01:50;33.50;;;22.58;;
50988;SDS011;37008;52.210;21.112;2023-02-25T07:04:16;34.75;;;23.63;;
50988;SDS011;37008;52.210;21.112;2023-02-25T07:06:43;34.80;;;22.20;;
50988;SDS011;37008;52.210;21.112;2023-02-25T07:09:09;35.15;;;23.50;;
50988;SDS011;37008;52.210;21.112;2023-02-25T07:11:35;36.15;;;22.90;;
50988;SDS011;37008;52.210;21.112;2023-02-25T07:14:02;34.28;;;23.05;;
50988;SDS011;37008;52.210;21.112;2023-02-25T07:16:28;38.40;;;23.48;;
50988;SDS011;37008;52.210;21.112;2023-02-25T07:18:55;35.72;;;23.48;;
50988;SDS011;37008;52.210;21.112;2023-02-25T07:21:21;36.45;;;23.90;;
50988;SDS011;37008;52.210;21.112;2023-02-25T07:23:48;38.58;;;23.50;;
50988;SDS011;37008;52.210;21.112;2023-02-25T07:26:14;36.67;;;22.58;;
50988;SDS011;37008;52.210;21.112;2023-02-25T07:28:41;35.58;;;22.45;;
50988;SDS011;37008;52.210;21.112;2023-02-25T07:31:12;37.92;;;23.92;;
50988;SDS011;37008;52.210;21.112;2023-02-25T07:33:39;36.97;;;23.38;;
50988;SDS011;37008;52.210;21.112;2023-02-25T07:36:05;38.72;;;23.80;;
50988;SDS011;37008;52.210;21.112;2023-02-25T07:38:31;36.22;;;22.95;;
50988;SDS011;37008;52.210;21.112;2023-02-25T07:41:02;42.30;;;24.13;;
50988;SDS011;37008;52.210;21.112;2023-02-25T07:43:32;37.70;;;23.27;;
50988;SDS011;37008;52.210;21.112;2023-02-25T07:45:57;36.40;;;23.38;;
50988;SDS011;37008;52.210;21.112;2023-02-25T07:48:24;40.75;;;26.25;;
50988;SDS011;37008;52.210;21.112;2023-02-25T07:50:49;37.15;;;23.75;;
50988;SDS011;37008;52.210;21.112;2023-02-25T07:53:15;38.08;;;23.48;;
50988;SDS011;37008;52.210;21.112;2023-02-25T07:55:41;35.42;;;23.73;;
50988;SDS011;37008;52.210;21.112;2023-02-25T07:58:08;36.63;;;23.52;;
50988;SDS011;37008;52.210;21.112;2023-02-25T08:00:35;34.10;;;23.88;;
50988;SDS011;37008;52.210;21.112;2023-02-25T08:03:02;37.50;;;25.13;;
50988;SDS011;37008;52.210;21.112;2023-02-25T08:05:29;35.65;;;23.38;;
50988;SDS011;37008;52.210;21.112;2023-02-25T08:08:00;33.45;;;23.50;;
50988;SDS011;37008;52.210;21.112;2023-02-25T08:10:25;35.92;;;24.75;;
50988;SDS011;37008;52.210;21.112;2023-02-25T08:12:54;34.70;;;23.83;;
50988;SDS011;37008;52.210;21.112;2023-02-25T08:15:20;33.78;;;23.15;;
50988;SDS011;37008;52.210;21.112;2023-02-25T08:17:45;34.28;;;24.08;;
50988;SDS011;37008;52.210;21.112;2023-02-25T08:20:15;32.22;;;22.88;;
50988;SDS011;37008;52.210;21.112;2023-02-25T08:22:41;31.98;;;22.55;;
50988;SDS011;37008;52.210;21.112;2023-02-25T08:25:07;30.67;;;21.83;;
50988;SDS011;37008;52.210;21.112;2023-02-25T08:27:34;26.65;;;20.58;;
50988;SDS011;37008;52.210;21.112;2023-02-25T08:30:01;27.35;;;21.60;;
50988;SDS011;37008;52.210;21.112;2023-02-25T08:32:27;28.08;;;22.05;;
50988;SDS011;37008;52.210;21.112;2023-02-25T08:34:53;28.42;;;20.73;;
50988;SDS011;37008;52.210;21.112;2023-02-25T08:37:20;26.27;;;20.70;;
50988;SDS011;37008;52.210;21.112;2023-02-25T08:39:46;26.35;;;20.77;;
50988;SDS011;37008;52.210;21.112;2023-02-25T08:42:12;24.38;;;19.08;;
50988;SDS011;37008;52.210;21.112;2023-02-25T08:44:42;32.50;;;21.42;;
50988;SDS011;37008;52.210;21.112;2023-02-25T08:47:08;25.20;;;19.02;;
50988;SDS011;37008;52.210;21.112;2023-02-25T08:49:34;26.77;;;19.98;;
50988;SDS011;37008;52.210;21.112;2023-02-25T08:51:59;27.00;;;21.05;;
50988;SDS011;37008;52.210;21.112;2023-02-25T08:54:25;28.92;;;21.13;;
50988;SDS011;37008;52.210;21.112;2023-02-25T08:56:51;25.05;;;20.17;;
50988;SDS011;37008;52.210;21.112;2023-02-25T08:59:19;25.13;;;19.77;;
50988;SDS011;37008;52.210;21.112;2023-02-25T09:01:44;29.15;;;21.10;;
50988;SDS011;37008;52.210;21.112;2023-02-25T09:06:37;25.60;;;20.42;;
50988;SDS011;37008;52.210;21.112;2023-02-25T09:09:03;24.65;;;19.88;;
50988;SDS011;37008;52.210;21.112;2023-02-25T09:11:29;25.30;;;20.00;;
50988;SDS011;37008;52.210;21.112;2023-02-25T09:13:55;29.25;;;21.70;;
50988;SDS011;37008;52.210;21.112;2023-02-25T09:16:20;24.23;;;18.73;;
50988;SDS011;37008;52.210;21.112;2023-02-25T09:18:46;22.50;;;17.20;;
50988;SDS011;37008;52.210;21.112;2023-02-25T09:21:14;21.33;;;17.65;;
50988;SDS011;37008;52.210;21.112;2023-02-25T09:23:40;19.75;;;16.05;;
50988;SDS011;37008;52.210;21.112;2023-02-25T09:26:06;21.23;;;17.02;;
50988;SDS011;37008;52.210;21.112;2023-02-25T09:28:33;21.00;;;15.38;;
50988;SDS011;37008;52.210;21.112;2023-02-25T09:30:59;19.23;;;14.95;;
50988;SDS011;37008;52.210;21.112;2023-02-25T09:33:26;23.83;;;17.45;;
50988;SDS011;37008;52.210;21.112;2023-02-25T09:35:52;25.52;;;18.52;;
50988;SDS011;37008;52.210;21.112;2023-02-25T09:38:18;20.13;;;14.02;;
50988;SDS011;37008;52.210;21.112;2023-02-25T09:40:45;21.08;;;13.88;;
50988;SDS011;37008;52.210;21.112;2023-02-25T09:43:18;17.10;;;13.60;;
50988;SDS011;37008;52.210;21.112;2023-02-25T09:45:50;16.42;;;12.35;;
50988;SDS011;37008;52.210;21.112;2023-02-25T09:48:22;15.27;;;12.10;;
50988;SDS011;37008;52.210;21.112;2023-02-25T09:50:51;16.10;;;11.20;;
50988;SDS011;37008;52.210;21.112;2023-02-25T09:53:26;13.35;;;10.38;;
50988;SDS011;37008;52.210;21.112;2023-02-25T09:55:57;13.65;;;11.35;;
50988;SDS011;37008;52.210;21.112;2023-02-25T10:00:52;14.95;;;10.50;;
50988;SDS011;37008;52.210;21.112;2023-02-25T10:03:44;13.10;;;9.82;;
50988;SDS011;37008;52.210;21.112;2023-02-25T10:09:09;11.63;;;9.32;;
50988;SDS011;37008;52.210;21.112;2023-02-25T10:17:54;9.52;;;6.88;;
50988;SDS011;37008;52.210;21.112;2023-02-25T10:23:06;12.32;;;8.48;;
50988;SDS011;37008;52.210;21.112;2023-02-25T10:28:41;12.75;;;8.02;;
50988;SDS011;37008;52.210;21.112;2023-02-25T10:31:18;10.57;;;6.57;;
50988;SDS011;37008;52.210;21.112;2023-02-25T10:33:47;11.90;;;7.68;;
50988;SDS011;37008;52.210;21.112;2023-02-25T10:38:42;15.45;;;7.85;;
50988;SDS011;37008;52.210;21.112;2023-02-25T10:41:10;12.13;;;7.80;;
50988;SDS011;37008;52.210;21.112;2023-02-25T10:43:37;9.27;;;7.00;;
50988;SDS011;37008;52.210;21.112;2023-02-25T10:48:33;8.13;;;6.03;;
50988;SDS011;37008;52.210;21.112;2023-02-25T10:53:31;5.97;;;3.97;;
50988;SDS011;37008;52.210;21.112;2023-02-25T10:55:58;4.93;;;2.92;;
50988;SDS011;37008;52.210;21.112;2023-02-25T10:58:27;4.15;;;2.90;;
50988;SDS011;37008;52.210;21.112;2023-02-25T11:01:18;4.75;;;2.70;;
50988;SDS011;37008;52.210;21.112;2023-02-25T11:03:55;3.95;;;3.33;;
50988;SDS011;37008;52.210;21.112;2023-02-25T11:06:25;6.00;;;3.60;;
50988;SDS011;37008;52.210;21.112;2023-02-25T11:08:54;5.40;;;3.80;;
50988;SDS011;37008;52.210;21.112;2023-02-25T11:11:29;9.82;;;4.80;;
50988;SDS011;37008;52.210;21.112;2023-02-25T11:14:12;6.68;;;4.72;;
50988;SDS011;37008;52.210;21.112;2023-02-25T11:16:40;7.35;;;4.88;;
50988;SDS011;37008;52.210;21.112;2023-02-25T11:19:12;5.60;;;4.50;;
50988;SDS011;37008;52.210;21.112;2023-02-25T11:21:44;7.88;;;6.10;;
50988;SDS011;37008;52.210;21.112;2023-02-25T11:24:18;10.40;;;5.60;;
50988;SDS011;37008;52.210;21.112;2023-02-25T11:27:06;7.38;;;5.22;;
50988;SDS011;37008;52.210;21.112;2023-02-25T11:29:45;6.53;;;5.05;;
50988;SDS011;37008;52.210;21.112;2023-02-25T11:32:16;8.20;;;5.40;;
50988;SDS011;37008;52.210;21.112;2023-02-25T11:34:45;9.55;;;7.07;;
50988;SDS011;37008;52.210;21.112;2023-02-25T11:37:34;6.72;;;5.65;;
50988;SDS011;37008;52.210;21.112;2023-02-25T11:43:26;12.27;;;8.75;;
50988;SDS011;37008;52.210;21.112;2023-02-25T11:45:52;8.43;;;6.45;;
50988;SDS011;37008;52.210;21.112;2023-02-25T11:51:25;10.27;;;7.55;;
50988;SDS011;37008;52.210;21.112;2023-02-25T11:54:31;5.22;;;4.55;;
50988;SDS011;37008;52.210;21.112;2023-02-25T11:59:37;8.45;;;5.47;;
50988;SDS011;37008;52.210;21.112;2023-02-25T12:02:19;17.85;;;14.45;;
50988;SDS011;37008;52.210;21.112;2023-02-25T12:24:57;16.23;;;11.45;;
50988;SDS011;37008;52.210;21.112;2023-02-25T12:44:08;7.03;;;2.58;;
50988;SDS011;37008;52.210;21.112;2023-02-25T12:47:00;4.00;;;2.92;;
50988;SDS011;37008;52.210;21.112;2023-02-25T12:52:41;6.25;;;4.13;;
50988;SDS011;37008;52.210;21.112;2023-02-25T12:55:34;6.90;;;3.88;;
50988;SDS011;37008;52.210;21.112;2023-02-25T12:58:29;4.90;;;3.47;;
50988;SDS011;37008;52.210;21.112;2023-02-25T13:01:37;4.82;;;4.30;;
50988;SDS011;37008;52.210;21.112;2023-02-25T13:04:22;6.57;;;5.65;;
50988;SDS011;37008;52.210;21.112;2023-02-25T13:23:10;8.75;;;5.18;;
50988;SDS011;37008;52.210;21.112;2023-02-25T13:26:05;6.18;;;4.43;;
50988;SDS011;37008;52.210;21.112;2023-02-25T13:51:01;7.07;;;4.57;;
50988;SDS011;37008;52.210;21.112;2023-02-25T14:05:37;7.32;;;5.03;;
50988;SDS011;37008;52.210;21.112;2023-02-25T14:11:01;5.80;;;3.88;;
50988;SDS011;37008;52.210;21.112;2023-02-25T14:14:00;3.70;;;2.55;;
50988;SDS011;37008;52.210;21.112;2023-02-25T14:22:55;4.00;;;2.45;;
50988;SDS011;37008;52.210;21.112;2023-02-25T14:28:31;4.05;;;3.08;;
50988;SDS011;37008;52.210;21.112;2023-02-25T14:37:28;4.35;;;2.80;;
50988;SDS011;37008;52.210;21.112;2023-02-25T14:39:50;3.70;;;3.00;;
50988;SDS011;37008;52.210;21.112;2023-02-25T14:45:27;5.30;;;3.47;;
50988;SDS011;37008;52.210;21.112;2023-02-25T14:47:57;5.60;;;3.75;;
50988;SDS011;37008;52.210;21.112;2023-02-25T14:50:45;4.88;;;3.45;;
50988;SDS011;37008;52.210;21.112;2023-02-25T14:54:26;4.40;;;3.55;;
50988;SDS011;37008;52.210;21.112;2023-02-25T14:59:20;4.72;;;3.45;;
50988;SDS011;37008;52.210;21.112;2023-02-25T15:02:01;4.55;;;3.63;;
50988;SDS011;37008;52.210;21.112;2023-02-25T15:13:20;6.50;;;5.03;;
50988;SDS011;37008;52.210;21.112;2023-02-25T15:16:07;7.35;;;5.32;;
50988;SDS011;37008;52.210;21.112;2023-02-25T15:19:04;7.55;;;6.13;;
50988;SDS011;37008;52.210;21.112;2023-02-25T15:21:49;5.57;;;4.57;;
50988;SDS011;37008;52.210;21.112;2023-02-25T15:24:36;6.85;;;4.80;;
50988;SDS011;37008;52.210;21.112;2023-02-25T15:29:58;7.18;;;5.80;;
50988;SDS011;37008;52.210;21.112;2023-02-25T15:32:25;11.52;;;7.75;;
50988;SDS011;37008;52.210;21.112;2023-02-25T15:35:01;11.10;;;7.35;;
50988;SDS011;37008;52.210;21.112;2023-02-25T16:03:27;12.45;;;9.45;;
50988;SDS011;37008;52.210;21.112;2023-02-25T16:06:19;12.73;;;9.43;;
50988;SDS011;37008;52.210;21.112;2023-02-25T16:08:55;11.32;;;9.48;;
50988;SDS011;37008;52.210;21.112;2023-02-25T16:11:37;13.52;;;9.43;;
50988;SDS011;37008;52.210;21.112;2023-02-25T16:14:05;13.25;;;9.88;;
50988;SDS011;37008;52.210;21.112;2023-02-25T16:16:45;11.00;;;8.57;;
50988;SDS011;37008;52.210;21.112;2023-02-25T16:19:14;14.38;;;10.27;;
50988;SDS011;37008;52.210;21.112;2023-02-25T16:21:44;13.15;;;9.90;;
50988;SDS011;37008;52.210;21.112;2023-02-25T16:24:13;15.27;;;10.95;;
50988;SDS011;37008;52.210;21.112;2023-02-25T16:34:35;12.68;;;8.73;;
50988;SDS011;37008;52.210;21.112;2023-02-25T16:39:37;10.40;;;7.10;;
50988;SDS011;37008;52.210;21.112;2023-02-25T16:42:04;11.55;;;8.15;;
50988;SDS011;37008;52.210;21.112;2023-02-25T16:44:36;17.42;;;10.10;;
50988;SDS011;37008;52.210;21.112;2023-02-25T16:47:04;16.83;;;9.20;;
50988;SDS011;37008;52.210;21.112;2023-02-25T16:49:43;12.70;;;9.18;;
50988;SDS011;37008;52.210;21.112;2023-02-25T16:52:20;16.20;;;10.75;;
50988;SDS011;37008;52.210;21.112;2023-02-25T16:54:53;15.73;;;11.13;;
50988;SDS011;37008;52.210;21.112;2023-02-25T16:57:23;15.95;;;10.35;;
50988;SDS011;37008;52.210;21.112;2023-02-25T16:59:49;18.00;;;12.68;;
50988;SDS011;37008;52.210;21.112;2023-02-25T17:02:28;14.70;;;10.55;;
50988;SDS011;37008;52.210;21.112;2023-02-25T17:04:54;12.63;;;9.13;;
50988;SDS011;37008;52.210;21.112;2023-02-25T17:07:26;15.63;;;10.93;;
50988;SDS011;37008;52.210;21.112;2023-02-25T17:10:00;20.08;;;10.38;;
50988;SDS011;37008;52.210;21.112;2023-02-25T17:14:56;15.27;;;10.18;;
50988;SDS011;37008;52.210;21.112;2023-02-25T17:17:35;16.17;;;9.88;;
50988;SDS011;37008;52.210;21.112;2023-02-25T17:20:04;14.00;;;9.65;;
50988;SDS011;37008;52.210;21.112;2023-02-25T17:22:37;12.45;;;9.18;;
50988;SDS011;37008;52.210;21.112;2023-02-25T17:25:03;12.77;;;9.30;;
50988;SDS011;37008;52.210;21.112;2023-02-25T17:27:30;13.57;;;9.13;;
50988;SDS011;37008;52.210;21.112;2023-02-25T17:29:57;13.55;;;9.45;;
50988;SDS011;37008;52.210;21.112;2023-02-25T17:32:24;13.32;;;10.20;;
50988;SDS011;37008;52.210;21.112;2023-02-25T17:34:53;11.98;;;9.13;;
50988;SDS011;37008;52.210;21.112;2023-02-25T17:37:32;15.63;;;10.45;;
50988;SDS011;37008;52.210;21.112;2023-02-25T17:39:59;14.15;;;10.02;;
50988;SDS011;37008;52.210;21.112;2023-02-25T17:44:55;16.00;;;10.95;;
50988;SDS011;37008;52.210;21.112;2023-02-25T17:47:28;15.95;;;11.70;;
50988;SDS011;37008;52.210;21.112;2023-02-25T17:49:59;17.42;;;12.45;;
50988;SDS011;37008;52.210;21.112;2023-02-25T17:52:46;17.35;;;12.77;;
50988;SDS011;37008;52.210;21.112;2023-02-25T17:55:26;15.10;;;12.02;;
50988;SDS011;37008;52.210;21.112;2023-02-25T17:57:56;20.02;;;14.18;;
50988;SDS011;37008;52.210;21.112;2023-02-25T18:03:19;20.83;;;13.15;;
50988;SDS011;37008;52.210;21.112;2023-02-25T18:08:26;16.27;;;10.85;;
50988;SDS011;37008;52.210;21.112;2023-02-25T18:10:54;20.77;;;13.25;;
50988;SDS011;37008;52.210;21.112;2023-02-25T18:13:32;10.40;;;7.97;;
50988;SDS011;37008;52.210;21.112;2023-02-25T18:16:12;12.77;;;8.73;;
50988;SDS011;37008;52.210;21.112;2023-02-25T18:18:52;13.50;;;8.95;;
50988;SDS011;37008;52.210;21.112;2023-02-25T18:21:18;14.23;;;10.48;;
50988;SDS011;37008;52.210;21.112;2023-02-25T18:23:44;15.40;;;11.35;;